createdAt,value
2022-08-05T00:01:51.862Z,97949.59
2022-08-05T00:06:57.817Z,97958.38
2022-08-05T00:12:03.831Z,97953.34
2022-08-05T00:17:19.447Z,97950.81
2022-08-05T00:22:25.209Z,97933.38
2022-08-05T00:27:36.437Z,97934.44
2022-08-05T00:32:44.368Z,97935.81
2022-08-05T00:37:52.852Z,97932.41
2022-08-05T00:43:00.934Z,97926.88
2022-08-05T00:48:10.108Z,97924.31
2022-08-05T00:54:00.520Z,97929.75
2022-08-05T00:58:42.484Z,97923.66
2022-08-05T01:03:52.890Z,97919.72
2022-08-05T01:08:58.094Z,97928.41
2022-08-05T01:14:15.624Z,97928.38
2022-08-05T01:19:56.388Z,97921.72
2022-08-05T01:25:15.667Z,97915.25
2022-08-05T01:30:34.881Z,97924.22
2022-08-05T01:35:51.131Z,97923.03
2022-08-05T01:41:01.913Z,97915.94
2022-08-05T01:46:16.669Z,97917.00
2022-08-05T01:51:38.594Z,97918.56
2022-08-05T01:58:29.305Z,97919.34
2022-08-05T02:02:16.002Z,97917.94
2022-08-05T02:07:22.886Z,97915.69
2022-08-05T02:12:37.777Z,97910.69
2022-08-05T02:18:30.717Z,97907.06
2022-08-05T02:23:20.509Z,97909.97
2022-08-05T02:28:32.984Z,97915.16
2022-08-05T02:33:45.556Z,97903.28
2022-08-05T02:38:55.918Z,97910.59
2022-08-05T02:44:06.875Z,97919.34
2022-08-05T02:49:22.395Z,97923.41
2022-08-05T02:54:35.668Z,97914.78
2022-08-05T02:59:50.697Z,97932.22
2022-08-05T03:06:56.806Z,97921.09
2022-08-05T03:11:55.692Z,97923.75
2022-08-05T03:16:15.804Z,97915.44
2022-08-05T03:21:20.825Z,97907.03
2022-08-05T03:26:30.927Z,97921.47
2022-08-05T03:31:57.207Z,97936.03
2022-08-05T03:37:03.120Z,97922.53
2022-08-05T03:42:10.809Z,97936.25
2022-08-05T03:47:15.911Z,97937.75
2022-08-05T03:52:38.146Z,97944.63
2022-08-05T03:57:56.285Z,97959.66
2022-08-05T04:03:04.588Z,98027.44
2022-08-05T04:08:14.889Z,98097.78
2022-08-05T04:13:50.234Z,98042.91
2022-08-05T04:18:57.698Z,98085.78
2022-08-05T04:24:06.342Z,98055.19
2022-08-05T04:29:16.546Z,98080.22
2022-08-05T04:34:32.255Z,98077.50
2022-08-05T04:39:39.125Z,98071.91
2022-08-05T04:44:46.776Z,98066.41
2022-08-05T04:50:02.988Z,98055.00
2022-08-05T04:55:16.757Z,98063.78
2022-08-05T05:00:30.083Z,98055.66
2022-08-05T05:06:40.163Z,98039.78
2022-08-05T05:11:01.230Z,98047.53
2022-08-05T05:16:09.379Z,98036.59
2022-08-05T05:21:14.278Z,98032.81
2022-08-05T05:26:19.500Z,98043.91
2022-08-05T05:36:40.189Z,98028.66
2022-08-05T05:41:45.029Z,98034.06
2022-08-05T05:47:04.261Z,98040.69
2022-08-05T05:52:12.982Z,98052.19
2022-08-05T05:57:42.625Z,98065.69
2022-08-05T06:02:50.846Z,98088.31
2022-08-05T06:07:58.003Z,98137.53
2022-08-05T06:13:07.727Z,98114.69
2022-08-05T06:18:16.178Z,98115.94
2022-08-05T06:23:22.483Z,98140.16
2022-08-05T06:28:28.557Z,98139.53
2022-08-05T06:34:07.298Z,98141.75
2022-08-05T06:39:01.205Z,98169.75
2022-08-05T06:44:06.412Z,98167.00
2022-08-05T06:49:13.855Z,98174.22
2022-08-05T06:54:19.048Z,98167.22
2022-08-05T06:59:24.333Z,98174.50
2022-08-05T07:04:32.003Z,98161.84
2022-08-05T07:09:40.617Z,98186.09
2022-08-05T07:15:00.674Z,98176.25
2022-08-05T07:20:32.190Z,98167.97
2022-08-05T07:25:54.908Z,98177.28
2022-08-05T07:30:58.925Z,98179.50
2022-08-05T07:36:20.806Z,98189.16
2022-08-05T07:42:12.847Z,98203.69
2022-08-05T07:46:52.587Z,98207.03
2022-08-05T07:52:01.374Z,98195.47
2022-08-05T07:57:16.969Z,98209.97
2022-08-05T08:03:14.554Z,98191.44
2022-08-05T08:08:00.809Z,98173.41
2022-08-05T08:13:05.911Z,98163.94
2022-08-05T08:18:14.376Z,98187.19
2022-08-05T08:24:02.598Z,98169.34
2022-08-05T08:28:55.297Z,98176.66
2022-08-05T08:34:04.674Z,98173.47
2022-08-05T08:39:15.435Z,98142.34
2022-08-05T08:45:18.936Z,98131.63
2022-08-05T08:50:13.057Z,98134.38
2022-08-05T08:55:32.024Z,98142.63
2022-08-05T09:00:45.389Z,98148.69
2022-08-05T09:06:08.971Z,98129.78
2022-08-05T09:11:18.981Z,98136.09
2022-08-05T09:16:48.714Z,98128.09
2022-08-05T09:22:18.514Z,98123.06
2022-08-05T09:28:04.147Z,98125.16
2022-08-05T09:33:04.981Z,98133.28
2022-08-05T09:38:12.580Z,98140.28
2022-08-05T09:43:40.636Z,98160.75
2022-08-05T09:49:06.883Z,98149.19
2022-08-05T09:54:12.220Z,98149.56
2022-08-05T09:59:27.978Z,98144.31
2022-08-05T10:04:39.801Z,98137.66
2022-08-05T10:10:04.273Z,98134.66
2022-08-05T10:15:28.774Z,98132.31
2022-08-05T10:20:41.997Z,98120.03
2022-08-05T10:25:47.329Z,98123.75
2022-08-05T10:32:51.665Z,98116.50
2022-08-05T10:36:26.141Z,98113.91
2022-08-05T10:41:45.165Z,98121.44
2022-08-05T10:46:56.996Z,98102.38
2022-08-05T10:52:05.270Z,98097.13
2022-08-05T10:57:16.137Z,98096.19
2022-08-05T11:02:37.705Z,98096.13
2022-08-05T11:08:12.736Z,98083.19
2022-08-05T11:13:54.839Z,98080.19
2022-08-05T11:20:11.215Z,98062.31
2022-08-05T11:26:04.761Z,98080.97
2022-08-05T11:31:57.115Z,98086.91
2022-08-05T11:36:54.022Z,98088.03
2022-08-05T11:42:02.385Z,98083.09
2022-08-05T11:47:15.153Z,98071.72
2022-08-05T11:52:31.047Z,98076.81
2022-08-05T11:58:08.121Z,98076.59
2022-08-05T12:03:01.456Z,98079.69
2022-08-05T12:08:11.546Z,98080.31
2022-08-05T12:13:47.829Z,98095.34
2022-08-05T12:18:52.466Z,98112.16
2022-08-05T12:24:04.982Z,98112.69
2022-08-05T12:29:16.146Z,98112.94
2022-08-05T12:34:23.705Z,98119.50
2022-08-05T12:39:38.782Z,98118.69
2022-08-05T12:44:44.745Z,98115.44
2022-08-05T12:50:03.725Z,98114.50
2022-08-05T12:55:26.186Z,98129.47
2022-08-05T13:02:03.767Z,98117.09
2022-08-05T13:05:59.138Z,98107.59
2022-08-05T13:11:09.058Z,98111.66
2022-08-05T13:16:17.257Z,98126.69
2022-08-05T13:21:22.520Z,98131.28
2022-08-05T13:26:36.267Z,98133.00
2022-08-05T13:32:04.931Z,98140.00
2022-08-05T13:37:08.864Z,98145.88
2022-08-05T13:42:16.610Z,98141.09
2022-08-05T13:47:36.006Z,98130.59
2022-08-05T13:52:49.869Z,98149.00
2022-08-05T13:57:57.754Z,98154.78
2022-08-05T14:03:04.219Z,98158.22
2022-08-05T14:08:20.328Z,98161.41
2022-08-05T14:13:34.855Z,98173.94
2022-08-05T14:18:40.176Z,98159.97
2022-08-05T14:23:46.475Z,98164.81
2022-08-05T14:28:55.684Z,98153.47
2022-08-05T14:34:01.751Z,98171.28
2022-08-05T14:39:10.894Z,98170.84
2022-08-05T14:44:20.186Z,98173.84
2022-08-05T14:49:25.843Z,98170.19
2022-08-05T14:54:52.816Z,98171.13
2022-08-05T15:00:00.994Z,98169.91
2022-08-05T15:05:08.772Z,98197.97
2022-08-05T15:10:18.740Z,98186.53
2022-08-05T15:15:55.866Z,98190.44
2022-08-05T15:21:07.536Z,98197.50
2022-08-05T15:26:13.199Z,98210.88
2022-08-05T15:31:21.152Z,98227.06
2022-08-05T15:36:27.475Z,98233.69
2022-08-05T15:41:57.793Z,98243.47
2022-08-05T15:47:02.197Z,98245.63
2022-08-05T15:52:15.823Z,98258.59
2022-08-05T15:57:23.225Z,98285.28
2022-08-05T16:02:32.271Z,98297.78
2022-08-05T16:07:38.748Z,98301.25
2022-08-05T16:12:52.981Z,98324.59
2022-08-05T16:18:04.323Z,98333.56
2022-08-05T16:23:15.568Z,98341.09
2022-08-05T16:28:29.265Z,98354.91
2022-08-05T16:33:41.243Z,98379.28
2022-08-05T16:38:54.712Z,98383.97
2022-08-05T16:44:00.951Z,98411.19
2022-08-05T16:49:12.452Z,98415.97
2022-08-05T16:54:32.929Z,98443.03
2022-08-05T17:00:01.298Z,98463.63
2022-08-05T17:05:08.762Z,98481.63
2022-08-05T17:10:14.453Z,98495.56
2022-08-05T17:15:19.914Z,98496.50
2022-08-05T17:20:27.666Z,98507.63
2022-08-05T17:25:39.939Z,98516.38
2022-08-05T17:30:52.122Z,98526.88
2022-08-05T17:36:07.661Z,98524.41
2022-08-05T17:42:16.605Z,98541.28
2022-08-05T17:46:40.656Z,98523.28
2022-08-05T17:51:50.116Z,98543.06
2022-08-05T17:56:55.111Z,98554.44
2022-08-05T18:02:03.487Z,98550.06
2022-08-05T18:07:18.433Z,98557.22
2022-08-05T18:12:25.781Z,98559.94
2022-08-05T18:18:00.831Z,98572.09
2022-08-05T18:23:09.217Z,98565.38
2022-08-05T18:28:17.908Z,98580.72
2022-08-05T18:33:28.405Z,98600.00
2022-08-05T18:38:57.583Z,98605.22
2022-08-05T18:44:06.537Z,98622.47
2022-08-05T18:49:30.713Z,98653.34
2022-08-05T18:54:51.811Z,98656.53
2022-08-05T19:00:03.204Z,98667.25
2022-08-05T19:06:05.450Z,98649.81
2022-08-05T19:10:37.769Z,98662.84
2022-08-05T19:15:58.854Z,98649.81
2022-08-05T19:21:05.372Z,98650.22
2022-08-05T19:26:16.686Z,98673.75
2022-08-05T19:31:22.964Z,98675.84
2022-08-05T19:36:29.374Z,98687.22
2022-08-05T19:42:06.892Z,98700.19
2022-08-05T19:47:03.062Z,98728.31
2022-08-05T19:52:30.728Z,98727.25
2022-08-05T19:57:49.145Z,98752.00
2022-08-05T20:03:08.452Z,98797.28
2022-08-05T20:08:15.270Z,98712.19
2022-08-05T20:13:54.768Z,98775.56
2022-08-05T20:18:55.567Z,98815.78
2022-08-05T20:24:01.372Z,98788.84
2022-08-05T20:29:27.329Z,98777.84
2022-08-05T20:34:33.126Z,98754.41
2022-08-05T20:39:39.307Z,98772.28
2022-08-05T20:44:48.506Z,98846.44
2022-08-05T20:49:53.436Z,98898.59
2022-08-05T20:55:56.532Z,98879.16
2022-08-05T21:00:49.712Z,98839.38
2022-08-05T21:05:55.438Z,98827.31
2022-08-05T21:11:00.701Z,98798.44
2022-08-05T21:16:17.397Z,98824.50
2022-08-05T21:21:24.475Z,98820.69
2022-08-05T21:26:29.599Z,98841.00
2022-08-05T21:31:41.590Z,98866.34
2022-08-05T21:36:46.773Z,98911.84
2022-08-05T21:42:01.159Z,98918.88
2022-08-05T21:47:32.715Z,98914.66
2022-08-05T21:52:34.168Z,98911.66
2022-08-05T21:57:42.758Z,98916.72
2022-08-05T22:02:50.378Z,98914.28
2022-08-05T22:07:58.812Z,98937.56
2022-08-05T22:14:18.470Z,98941.78
2022-08-05T22:18:36.487Z,98935.09
2022-08-05T22:24:02.764Z,98932.84
2022-08-05T22:29:09.493Z,98947.09
2022-08-05T22:34:20.092Z,98939.97
2022-08-05T22:39:33.926Z,98941.66
2022-08-05T22:44:39.573Z,98925.53
2022-08-05T22:50:20.156Z,98914.28
2022-08-05T22:55:19.021Z,98902.56
2022-08-05T23:00:26.662Z,98908.63
2022-08-05T23:05:35.897Z,98911.34
2022-08-05T23:10:43.010Z,98903.94
2022-08-05T23:15:50.265Z,98920.25
2022-08-05T23:20:57.839Z,98928.22
2022-08-05T23:26:03.158Z,98928.22
2022-08-05T23:31:16.942Z,98930.63
2022-08-05T23:36:28.328Z,98934.66
2022-08-05T23:41:48.770Z,98943.47
2022-08-05T23:46:53.740Z,98957.50
2022-08-05T23:52:16.298Z,98964.00
2022-08-05T23:57:21.303Z,98987.31
